createdAt,value
2019-06-08T00:00:48.892Z,16.70
2019-06-08T00:03:18.515Z,16.70
2019-06-08T00:05:46.898Z,16.50
2019-06-08T00:08:15.118Z,16.60
2019-06-08T00:10:43.343Z,16.60
2019-06-08T00:13:13.044Z,16.50
2019-06-08T00:15:41.450Z,16.50
2019-06-08T00:18:09.657Z,16.50
2019-06-08T00:20:37.882Z,16.40
2019-06-08T00:23:06.110Z,16.40
2019-06-08T00:25:34.343Z,16.40
2019-06-08T00:28:02.571Z,16.50
2019-06-08T00:30:30.853Z,16.60
2019-06-08T00:32:59.078Z,16.70
2019-06-08T00:35:27.286Z,16.70
2019-06-08T00:37:55.573Z,16.80
2019-06-08T00:40:25.164Z,16.80
2019-06-08T00:42:53.961Z,16.90
2019-06-08T00:45:23.603Z,16.90
2019-06-08T00:47:51.931Z,16.90
2019-06-08T00:50:21.031Z,17.00
2019-06-08T00:52:49.346Z,17.00
2019-06-08T00:55:17.583Z,17.00
2019-06-08T00:57:45.798Z,17.00
2019-06-08T01:00:14.030Z,16.90
2019-06-08T01:02:42.246Z,16.80
2019-06-08T01:05:10.457Z,16.80
2019-06-08T01:07:38.669Z,16.90
2019-06-08T01:10:07.248Z,16.80
2019-06-08T01:12:35.487Z,16.90
2019-06-08T01:15:05.260Z,17.00
2019-06-08T01:17:33.542Z,17.00
2019-06-08T01:20:01.830Z,17.10
2019-06-08T01:22:30.069Z,17.20
2019-06-08T01:24:58.283Z,17.30
2019-06-08T01:27:26.498Z,17.20
2019-06-08T01:29:54.725Z,17.00
2019-06-08T01:32:24.214Z,16.90
2019-06-08T01:34:52.760Z,16.80
2019-06-08T01:37:21.043Z,16.80
2019-06-08T01:39:49.267Z,16.80
2019-06-08T01:42:17.484Z,16.70
2019-06-08T01:44:45.702Z,16.70
2019-06-08T01:47:13.927Z,16.70
2019-06-08T01:49:42.138Z,16.70
2019-06-08T01:52:10.365Z,16.70
2019-06-08T01:54:38.584Z,16.70
2019-06-08T01:57:06.801Z,16.80
2019-06-08T01:59:35.023Z,16.60
2019-06-08T02:02:03.228Z,16.60
2019-06-08T02:04:32.979Z,16.60
2019-06-08T02:07:01.390Z,16.60
2019-06-08T02:09:30.614Z,16.50
2019-06-08T02:11:59.141Z,16.50
2019-06-08T02:14:29.201Z,16.50
2019-06-08T02:16:57.450Z,16.60
2019-06-08T02:19:26.548Z,16.60
2019-06-08T02:21:54.997Z,16.70
2019-06-08T02:24:23.735Z,16.70
2019-06-08T02:26:52.494Z,16.70
2019-06-08T02:29:20.780Z,16.70
2019-06-08T02:31:49.058Z,16.70
2019-06-08T02:34:17.325Z,16.50
2019-06-08T02:36:45.532Z,16.50
2019-06-08T02:39:13.741Z,16.50
2019-06-08T02:41:41.968Z,16.50
2019-06-08T02:44:10.190Z,16.50
2019-06-08T02:46:40.394Z,16.50
2019-06-08T02:49:08.417Z,16.50
2019-06-08T02:51:38.099Z,16.50
2019-06-08T02:54:06.629Z,16.40
2019-06-08T02:56:36.690Z,16.30
2019-06-08T02:59:06.501Z,16.30
2019-06-08T03:01:35.939Z,16.30
2019-06-08T03:04:04.759Z,16.30
2019-06-08T03:06:34.554Z,16.30
2019-06-08T03:09:03.063Z,16.30
2019-06-08T03:11:32.623Z,16.30
2019-06-08T03:14:01.326Z,16.20
2019-06-08T03:16:31.094Z,16.20
2019-06-08T03:19:09.782Z,16.20
2019-06-08T03:21:29.595Z,16.20
2019-06-08T03:23:57.815Z,16.20
2019-06-08T03:26:26.115Z,16.10
2019-06-08T03:28:54.326Z,16.20
2019-06-08T03:31:22.546Z,16.30
2019-06-08T03:33:55.879Z,16.30
2019-06-08T03:36:20.707Z,16.20
2019-06-08T03:38:48.932Z,16.20
2019-06-08T03:41:17.145Z,16.10
2019-06-08T03:43:45.361Z,16.10
2019-06-08T03:46:13.662Z,16.10
2019-06-08T03:48:43.931Z,16.10
2019-06-08T03:51:11.868Z,16.00
2019-06-08T03:53:41.998Z,16.00
2019-06-08T03:56:10.044Z,16.00
2019-06-08T03:58:39.112Z,16.10
2019-06-08T04:01:08.217Z,16.10
2019-06-08T04:03:37.490Z,16.10
2019-06-08T04:06:06.069Z,16.10
2019-06-08T04:08:34.277Z,16.20
2019-06-08T04:11:02.507Z,16.20
2019-06-08T04:13:30.726Z,16.10
2019-06-08T04:15:58.930Z,16.20
2019-06-08T04:18:27.161Z,16.20
2019-06-08T04:20:55.371Z,16.20
2019-06-08T04:23:23.586Z,16.10
2019-06-08T04:25:52.089Z,16.00
2019-06-08T04:28:20.300Z,16.00
2019-06-08T04:30:49.971Z,16.00
2019-06-08T04:33:18.519Z,16.00
2019-06-08T04:35:50.750Z,16.00
2019-06-08T04:38:19.117Z,16.00
2019-06-08T04:40:48.511Z,15.90
2019-06-08T04:43:17.306Z,16.00
2019-06-08T04:45:47.533Z,16.00
2019-06-08T04:48:15.461Z,15.90
2019-06-08T04:50:45.439Z,15.90
2019-06-08T04:53:13.622Z,15.90
2019-06-08T04:55:43.306Z,16.00
2019-06-08T04:58:12.317Z,16.00
2019-06-08T05:00:41.409Z,16.10
2019-06-08T05:03:10.507Z,16.10
2019-06-08T05:05:39.237Z,16.10
2019-06-08T05:08:08.082Z,16.10
2019-06-08T05:10:36.313Z,16.20
2019-06-08T05:13:04.792Z,16.20
2019-06-08T05:15:33.994Z,16.20
2019-06-08T05:18:05.717Z,16.10
2019-06-08T05:20:38.842Z,16.10
2019-06-08T05:23:03.894Z,16.10
2019-06-08T05:25:32.186Z,16.20
2019-06-08T05:28:00.417Z,16.30
2019-06-08T05:30:28.629Z,16.20
2019-06-08T05:32:56.850Z,16.30
2019-06-08T05:35:25.064Z,16.20
2019-06-08T05:37:53.283Z,16.20
2019-06-08T05:40:21.499Z,16.20
2019-06-08T05:42:49.987Z,16.10
2019-06-08T05:45:18.311Z,16.10
2019-06-08T05:47:47.836Z,16.10
2019-06-08T05:50:16.331Z,16.10
2019-06-08T05:52:45.804Z,16.20
2019-06-08T05:55:14.356Z,16.20
2019-06-08T05:57:42.574Z,16.30
2019-06-08T06:00:11.002Z,16.40
2019-06-08T06:02:40.202Z,16.40
2019-06-08T06:05:08.677Z,16.50
2019-06-08T06:07:36.906Z,16.70
2019-06-08T06:10:05.994Z,16.50
2019-06-08T06:12:34.217Z,16.50
2019-06-08T06:15:02.510Z,16.50
2019-06-08T06:17:30.726Z,16.50
2019-06-08T06:19:58.940Z,16.40
2019-06-08T06:22:27.163Z,16.40
2019-06-08T06:24:55.383Z,16.50
2019-06-08T06:27:23.595Z,16.60
2019-06-08T06:29:52.098Z,16.70
2019-06-08T06:32:20.516Z,16.80
2019-06-08T06:34:49.871Z,16.90
2019-06-08T06:37:18.343Z,17.00
2019-06-08T06:39:48.049Z,17.10
2019-06-08T06:42:16.786Z,17.20
2019-06-08T06:44:45.825Z,17.40
2019-06-08T06:47:14.980Z,17.50
2019-06-08T06:49:44.502Z,17.50
2019-06-08T06:52:12.901Z,17.60
2019-06-08T06:54:42.860Z,17.80
2019-06-08T06:57:11.090Z,17.60
2019-06-08T06:59:39.338Z,17.60
2019-06-08T07:02:07.543Z,17.50
2019-06-08T07:04:35.781Z,17.30
2019-06-08T07:07:04.003Z,17.20
2019-06-08T07:09:32.214Z,17.30
2019-06-08T07:12:00.438Z,17.20
2019-06-08T07:14:28.726Z,17.20
2019-06-08T07:16:58.184Z,17.20
2019-06-08T07:19:26.846Z,17.20
2019-06-08T07:21:55.085Z,17.10
2019-06-08T07:24:23.316Z,17.10
2019-06-08T07:26:52.462Z,17.30
2019-06-08T07:29:20.926Z,17.50
2019-06-08T07:31:50.343Z,17.60
2019-06-08T07:34:19.122Z,17.70
2019-06-08T07:36:48.465Z,17.60
2019-06-08T07:39:17.290Z,17.80
2019-06-08T07:41:45.536Z,18.00
2019-06-08T07:44:13.751Z,18.10
2019-06-08T07:46:41.970Z,18.10
2019-06-08T07:49:10.186Z,18.20
2019-06-08T07:51:38.422Z,18.40
2019-06-08T07:54:06.641Z,18.50
2019-06-08T07:56:34.849Z,18.60
2019-06-08T07:59:03.074Z,18.40
2019-06-08T08:01:36.099Z,18.40
2019-06-08T08:04:01.238Z,18.50
2019-06-08T08:06:30.572Z,18.70
2019-06-08T08:08:59.051Z,18.80
2019-06-08T08:11:27.250Z,18.60
2019-06-08T08:13:57.093Z,18.40
2019-06-08T08:16:25.433Z,18.50
2019-06-08T08:18:53.642Z,18.70
2019-06-08T08:21:26.030Z,18.90
2019-06-08T08:23:53.143Z,18.90
2019-06-08T08:26:21.519Z,18.80
2019-06-08T08:28:51.747Z,19.00
2019-06-08T08:31:19.775Z,19.00
2019-06-08T08:33:49.766Z,19.20
2019-06-08T08:36:20.862Z,19.40
2019-06-08T08:38:47.931Z,19.70
2019-06-08T08:41:18.159Z,19.90
2019-06-08T08:43:48.330Z,20.00
2019-06-08T08:46:17.334Z,20.20
2019-06-08T08:48:45.791Z,20.20
2019-06-08T08:51:14.012Z,20.00
2019-06-08T08:53:42.218Z,19.90
2019-06-08T08:56:10.449Z,19.90
2019-06-08T08:58:38.680Z,19.70
2019-06-08T09:01:08.224Z,19.50
2019-06-08T09:03:39.301Z,19.30
2019-06-08T09:06:08.663Z,19.20
2019-06-08T09:08:37.710Z,19.00
2019-06-08T09:11:08.120Z,18.90
2019-06-08T09:13:37.679Z,18.70
2019-06-08T09:16:08.041Z,18.80
2019-06-08T09:18:37.525Z,19.30
2019-06-08T09:21:08.187Z,19.40
2019-06-08T09:23:37.814Z,19.50
2019-06-08T09:26:11.909Z,19.90
2019-06-08T09:28:38.638Z,20.70
2019-06-08T09:31:08.262Z,21.00
2019-06-08T09:33:35.788Z,21.20
2019-06-08T09:36:04.991Z,21.20
2019-06-08T09:38:33.313Z,21.20
2019-06-08T09:41:04.815Z,21.20
2019-06-08T09:43:31.464Z,20.80
2019-06-08T09:46:02.061Z,20.80
2019-06-08T09:48:29.644Z,21.00
2019-06-08T09:51:00.415Z,21.00
2019-06-08T09:53:36.620Z,20.90
2019-06-08T09:56:02.427Z,20.50
2019-06-08T09:58:29.058Z,20.60
2019-06-08T10:01:01.042Z,20.50
2019-06-08T10:03:27.750Z,20.60
2019-06-08T10:06:01.485Z,20.40
2019-06-08T10:08:28.316Z,20.40
2019-06-08T10:10:59.452Z,20.60
2019-06-08T10:13:28.122Z,21.20
2019-06-08T10:16:00.023Z,21.90
2019-06-08T10:18:28.519Z,22.00
2019-06-08T10:21:00.409Z,22.20
2019-06-08T10:23:31.872Z,22.70
2019-06-08T10:26:00.348Z,22.70
2019-06-08T10:28:28.815Z,22.80
2019-06-08T10:30:59.618Z,23.20
2019-06-08T10:33:28.159Z,24.10
2019-06-08T10:35:59.137Z,24.90
2019-06-08T10:38:28.808Z,25.70
2019-06-08T10:41:14.815Z,25.40
2019-06-08T10:43:33.235Z,24.20
2019-06-08T10:46:08.466Z,22.60
2019-06-08T10:48:31.474Z,22.40
2019-06-08T10:51:03.357Z,22.60
2019-06-08T10:53:44.985Z,22.90
2019-06-08T10:56:01.283Z,22.90
2019-06-08T10:58:29.872Z,23.00
2019-06-08T11:01:02.173Z,22.90
2019-06-08T11:03:30.410Z,22.70
2019-06-08T11:06:00.483Z,22.30
2019-06-08T11:08:27.977Z,22.30
2019-06-08T11:10:57.937Z,22.10
2019-06-08T11:13:28.228Z,21.70
2019-06-08T11:15:58.704Z,21.60
2019-06-08T11:18:28.524Z,21.60
2019-06-08T11:20:57.968Z,21.60
2019-06-08T11:23:28.605Z,21.70
2019-06-08T11:25:59.504Z,21.80
2019-06-08T11:28:28.123Z,22.30
2019-06-08T11:30:55.778Z,22.80
2019-06-08T11:33:23.989Z,23.30
2019-06-08T11:35:52.206Z,23.80
2019-06-08T11:38:20.454Z,24.10
2019-06-08T11:40:48.713Z,23.50
2019-06-08T11:43:18.326Z,23.80
2019-06-08T11:45:48.091Z,23.40
2019-06-08T11:48:18.224Z,23.30
2019-06-08T11:50:49.028Z,23.30
2019-06-08T11:53:18.118Z,23.50
2019-06-08T11:55:50.711Z,24.00
2019-06-08T11:58:20.299Z,23.10
2019-06-08T12:01:01.410Z,23.10
2019-06-08T12:03:30.489Z,23.10
2019-06-08T12:05:58.707Z,23.10
2019-06-08T12:08:28.411Z,23.40
2019-06-08T12:11:01.071Z,22.90
2019-06-08T12:13:27.827Z,23.00
2019-06-08T12:15:58.708Z,23.30
2019-06-08T12:18:26.318Z,23.50
2019-06-08T12:20:54.529Z,23.90
2019-06-08T12:23:22.746Z,24.20
2019-06-08T12:25:50.958Z,24.10
2019-06-08T12:28:19.171Z,24.00
2019-06-08T12:30:47.908Z,24.10
2019-06-08T12:33:18.630Z,24.00
2019-06-08T12:35:47.738Z,24.00
2019-06-08T12:38:18.723Z,23.80
2019-06-08T12:40:48.365Z,23.90
2019-06-08T12:43:18.469Z,23.50
2019-06-08T12:45:45.975Z,22.80
2019-06-08T12:48:18.409Z,22.10
2019-06-08T12:50:44.132Z,21.70
2019-06-08T12:53:14.932Z,21.50
2019-06-08T12:55:42.286Z,21.70
2019-06-08T12:58:11.701Z,22.00
2019-06-08T13:00:40.629Z,22.40
2019-06-08T13:03:10.151Z,22.50
2019-06-08T13:05:38.800Z,22.60
2019-06-08T13:08:09.848Z,22.40
2019-06-08T13:10:38.340Z,22.40
2019-06-08T13:13:08.454Z,22.30
2019-06-08T13:15:38.487Z,22.00
2019-06-08T13:18:09.886Z,22.10
2019-06-08T13:20:38.764Z,22.00
2019-06-08T13:23:08.707Z,22.30
2019-06-08T13:25:42.849Z,22.50
2019-06-08T13:28:10.920Z,22.60
2019-06-08T13:30:38.833Z,22.50
2019-06-08T13:33:08.125Z,22.60
2019-06-08T13:35:39.224Z,22.70
2019-06-08T13:38:08.661Z,22.60
2019-06-08T13:40:37.778Z,22.50
2019-06-08T13:43:08.126Z,22.40
2019-06-08T13:45:39.130Z,22.40
2019-06-08T13:48:08.731Z,22.30
2019-06-08T13:50:36.631Z,22.40
2019-06-08T13:53:04.863Z,22.30
2019-06-08T13:55:48.504Z,22.30
2019-06-08T13:58:03.035Z,22.40
2019-06-08T14:00:38.090Z,22.50
2019-06-08T14:03:08.425Z,22.50
2019-06-08T14:05:38.909Z,22.50
2019-06-08T14:08:10.546Z,22.50
2019-06-08T14:10:39.072Z,22.40
2019-06-08T14:13:07.286Z,22.30
2019-06-08T14:15:37.914Z,22.40
2019-06-08T14:18:08.508Z,22.40
2019-06-08T14:20:38.259Z,22.60
2019-06-08T14:23:05.696Z,22.60
2019-06-08T14:25:47.053Z,22.50
2019-06-08T14:28:03.843Z,22.30
2019-06-08T14:30:33.280Z,22.30
2019-06-08T14:33:01.747Z,22.40
2019-06-08T14:35:29.977Z,22.30
2019-06-08T14:37:58.179Z,22.20
2019-06-08T14:40:30.996Z,22.40
2019-06-08T14:42:58.124Z,22.60
2019-06-08T14:45:28.934Z,22.70
2019-06-08T14:47:58.585Z,22.80
2019-06-08T14:50:29.268Z,22.90
2019-06-08T14:52:58.914Z,22.90
2019-06-08T14:55:31.657Z,23.00
2019-06-08T14:57:58.005Z,23.10
2019-06-08T15:00:27.469Z,23.10
2019-06-08T15:02:58.619Z,23.20
2019-06-08T15:05:28.912Z,23.20
2019-06-08T15:08:00.407Z,22.90
2019-06-08T15:10:28.055Z,22.60
2019-06-08T15:12:57.773Z,22.20
2019-06-08T15:15:26.505Z,22.10
2019-06-08T15:17:57.934Z,22.20
2019-06-08T15:20:26.168Z,22.30
2019-06-08T15:22:54.572Z,22.40
2019-06-08T15:25:22.781Z,22.60
2019-06-08T15:27:51.006Z,22.70
2019-06-08T15:30:19.231Z,22.80
2019-06-08T15:32:48.027Z,23.10
2019-06-08T15:35:18.181Z,23.10
2019-06-08T15:37:47.847Z,23.20
2019-06-08T15:40:17.748Z,23.20
2019-06-08T15:42:48.220Z,23.00
2019-06-08T15:45:18.294Z,23.00
2019-06-08T15:47:48.545Z,23.00
2019-06-08T15:50:18.016Z,23.00
2019-06-08T15:52:48.113Z,23.10
2019-06-08T15:55:18.800Z,23.00
2019-06-08T15:57:46.205Z,23.00
2019-06-08T16:00:14.491Z,22.90
2019-06-08T16:02:42.721Z,22.70
2019-06-08T16:05:10.956Z,22.60
2019-06-08T16:07:40.439Z,22.60
2019-06-08T16:10:09.129Z,22.60
2019-06-08T16:12:37.373Z,22.70
2019-06-08T16:15:07.222Z,22.70
2019-06-08T16:17:35.619Z,22.70
2019-06-08T16:20:04.382Z,22.80
2019-06-08T16:22:33.758Z,22.90
2019-06-08T16:25:02.118Z,22.90
2019-06-08T16:27:30.316Z,22.80
2019-06-08T16:29:58.550Z,22.80
2019-06-08T16:32:27.420Z,22.70
2019-06-08T16:34:55.866Z,22.70
2019-06-08T16:37:24.079Z,22.70
2019-06-08T16:39:52.302Z,22.60
2019-06-08T16:42:20.533Z,22.50
2019-06-08T16:44:49.010Z,22.50
2019-06-08T16:47:17.222Z,22.50
2019-06-08T16:49:45.774Z,22.50
2019-06-08T16:52:17.107Z,22.50
2019-06-08T16:54:44.198Z,22.50
2019-06-08T16:57:12.410Z,22.40
2019-06-08T16:59:40.639Z,22.40
2019-06-08T17:02:08.845Z,22.40
2019-06-08T17:04:37.574Z,22.30
2019-06-08T17:07:05.800Z,22.30
2019-06-08T17:09:34.267Z,22.30
2019-06-08T17:12:02.794Z,22.20
2019-06-08T17:14:32.010Z,22.20
2019-06-08T17:17:00.319Z,22.20
2019-06-08T17:19:29.861Z,22.20
2019-06-08T17:21:58.226Z,22.20
2019-06-08T17:24:26.442Z,22.20
2019-06-08T17:26:54.670Z,22.20
2019-06-08T17:29:23.218Z,22.20
2019-06-08T17:31:51.416Z,22.20
2019-06-08T17:34:20.699Z,22.20
2019-06-08T17:36:49.154Z,22.10
2019-06-08T17:39:17.370Z,22.00
2019-06-08T17:41:45.602Z,21.90
2019-06-08T17:44:13.813Z,21.90
2019-06-08T17:46:43.114Z,21.80
2019-06-08T17:49:11.984Z,21.70
2019-06-08T17:51:41.809Z,21.70
2019-06-08T17:54:10.209Z,21.70
2019-06-08T17:56:39.189Z,21.70
2019-06-08T17:59:07.538Z,21.70
2019-06-08T18:01:36.017Z,21.70
2019-06-08T18:04:04.306Z,21.60
2019-06-08T18:06:33.585Z,21.60
2019-06-08T18:09:01.915Z,21.50
2019-06-08T18:11:30.139Z,21.40
2019-06-08T18:13:58.945Z,21.40
2019-06-08T18:16:27.885Z,21.30
2019-06-08T18:18:57.743Z,21.30
2019-06-08T18:21:28.203Z,21.30
2019-06-08T18:23:57.662Z,21.20
2019-06-08T18:26:27.830Z,21.20
2019-06-08T18:28:58.151Z,21.10
2019-06-08T18:31:27.657Z,21.00
2019-06-08T18:33:57.919Z,20.90
2019-06-08T18:36:27.628Z,20.80
2019-06-08T18:38:58.023Z,20.80
2019-06-08T18:41:27.167Z,20.80
2019-06-08T18:43:58.185Z,20.70
2019-06-08T18:46:27.211Z,20.70
2019-06-08T18:48:57.744Z,20.70
2019-06-08T18:51:25.449Z,20.60
2019-06-08T18:54:07.426Z,20.60
2019-06-08T18:56:23.604Z,20.50
2019-06-08T18:58:53.676Z,20.40
2019-06-08T19:01:23.759Z,20.40
2019-06-08T19:03:52.923Z,20.40
2019-06-08T19:06:21.469Z,20.30
2019-06-08T19:08:50.981Z,20.20
2019-06-08T19:11:19.461Z,20.20
2019-06-08T19:13:47.865Z,20.10
2019-06-08T19:16:18.057Z,20.00
2019-06-08T19:18:49.974Z,20.00
2019-06-08T19:21:17.799Z,20.00
2019-06-08T19:23:49.255Z,19.90
2019-06-08T19:26:17.216Z,19.80
2019-06-08T19:28:52.130Z,19.80
2019-06-08T19:31:17.590Z,19.80
2019-06-08T19:33:49.390Z,19.80
2019-06-08T19:36:17.163Z,19.70
2019-06-08T19:38:52.069Z,19.70
2019-06-08T19:41:17.495Z,19.70
2019-06-08T19:43:53.238Z,19.60
2019-06-08T19:46:17.926Z,19.60
2019-06-08T19:48:48.171Z,19.60
2019-06-08T19:51:17.106Z,19.50
2019-06-08T19:53:51.401Z,19.60
2019-06-08T19:56:17.436Z,19.50
2019-06-08T19:58:56.027Z,19.50
2019-06-08T20:01:17.486Z,19.50
2019-06-08T20:03:45.210Z,19.40
2019-06-08T20:06:14.400Z,19.40
2019-06-08T20:08:42.979Z,19.30
2019-06-08T20:11:11.430Z,19.30
2019-06-08T20:13:39.648Z,19.30
2019-06-08T20:16:08.377Z,19.20
2019-06-08T20:18:37.506Z,19.20
2019-06-08T20:21:10.022Z,19.20
2019-06-08T20:23:38.081Z,19.10
2019-06-08T20:26:08.181Z,19.10
2019-06-08T20:28:37.269Z,19.10
2019-06-08T20:31:07.459Z,19.10
2019-06-08T20:33:37.875Z,19.00
2019-06-08T20:36:08.077Z,19.00
2019-06-08T20:38:39.678Z,19.00
2019-06-08T20:41:07.585Z,19.00
2019-06-08T20:43:38.147Z,18.90
2019-06-08T20:46:08.118Z,18.90
2019-06-08T20:48:37.779Z,18.90
2019-06-08T20:51:07.786Z,18.90
2019-06-08T20:53:38.252Z,18.90
2019-06-08T20:56:08.047Z,18.80
2019-06-08T20:58:37.175Z,18.80
2019-06-08T21:01:07.370Z,18.70
2019-06-08T21:03:35.725Z,18.70
2019-06-08T21:06:03.941Z,18.70
2019-06-08T21:08:32.159Z,18.60
2019-06-08T21:11:00.387Z,18.60
2019-06-08T21:13:28.613Z,18.60
2019-06-08T21:16:00.228Z,18.50
2019-06-08T21:18:27.610Z,18.50
2019-06-08T21:20:58.113Z,18.50
2019-06-08T21:23:28.116Z,18.40
2019-06-08T21:25:59.809Z,18.40
2019-06-08T21:28:27.990Z,18.40
2019-06-08T21:31:01.638Z,18.40
2019-06-08T21:33:25.865Z,18.30
2019-06-08T21:36:00.276Z,18.30
2019-06-08T21:38:24.546Z,18.20
2019-06-08T21:40:55.469Z,18.20
2019-06-08T21:43:22.973Z,18.20
2019-06-08T21:45:52.085Z,18.20
2019-06-08T21:48:21.129Z,18.20
2019-06-08T21:50:51.676Z,18.10
2019-06-08T21:53:19.288Z,18.10
2019-06-08T21:55:47.923Z,18.10
2019-06-08T21:58:17.867Z,18.00
2019-06-08T22:00:49.442Z,18.00
2019-06-08T22:03:17.674Z,18.00
2019-06-08T22:05:47.314Z,18.00
2019-06-08T22:08:17.345Z,18.10
2019-06-08T22:10:47.114Z,18.00
2019-06-08T22:13:17.463Z,18.00
2019-06-08T22:15:47.461Z,18.10
2019-06-08T22:18:15.410Z,18.20
2019-06-08T22:20:43.619Z,18.20
2019-06-08T22:23:11.834Z,18.20
2019-06-08T22:25:40.200Z,18.20
2019-06-08T22:28:08.647Z,18.20
2019-06-08T22:30:42.702Z,18.20
2019-06-08T22:33:06.810Z,18.20
2019-06-08T22:35:37.245Z,18.20
2019-06-08T22:38:04.989Z,18.20
2019-06-08T22:40:33.199Z,18.20
2019-06-08T22:43:01.421Z,18.20
2019-06-08T22:45:29.628Z,18.20
2019-06-08T22:48:00.449Z,18.20
2019-06-08T22:50:28.060Z,18.20
2019-06-08T22:52:59.324Z,18.20
2019-06-08T22:55:27.758Z,18.20
2019-06-08T22:57:59.608Z,18.20
2019-06-08T23:00:27.981Z,18.20
2019-06-08T23:02:59.300Z,18.10
2019-06-08T23:05:27.866Z,18.10
2019-06-08T23:07:59.733Z,18.10
2019-06-08T23:10:25.930Z,18.00
2019-06-08T23:12:54.361Z,18.00
2019-06-08T23:15:22.753Z,17.90
2019-06-08T23:17:50.979Z,17.90
2019-06-08T23:20:19.202Z,17.90
2019-06-08T23:22:47.572Z,17.90
2019-06-08T23:25:18.199Z,17.90
2019-06-08T23:27:48.238Z,18.00
2019-06-08T23:30:18.488Z,18.00
2019-06-08T23:32:48.036Z,18.00
2019-06-08T23:35:18.003Z,18.00
2019-06-08T23:37:47.751Z,18.00
2019-06-08T23:40:17.726Z,18.00
2019-06-08T23:42:47.611Z,18.00
2019-06-08T23:45:17.609Z,18.00
2019-06-08T23:47:47.855Z,18.00
2019-06-08T23:50:17.610Z,17.90
2019-06-08T23:52:47.586Z,17.90
2019-06-08T23:55:15.349Z,17.80
2019-06-08T23:57:43.565Z,17.70
